Koyo — JD2279 — position and weather

sailwx.info

Track history (hours):
 
Tides and Currents Weather Stations Pressure Air Temp Water Temp Dewpoint Dewpoint Depression Visibility Wind Speed Wind Dir Waves Ship Positions

Koyo

Last reported at 2017-Dec-16 08:08 UTC. Time now 2017-Dec-16 09:00 UTC.
Position N 33°52' E 132°41'.

Length 80 m; draft 3.7 m.

Type: Cargo ship. MMSI: 431301812.

Date/timePositionNaut miles runAvg speedWind from/ knotsBaromVisibWave heightAir tempDewpointWater temp
2017-Dec-16 08:08N 33°52' E 132°41'0 0.0
2017-Dec-16 07:50N 33°52' E 132°41'0 0.0
2017-Dec-16 07:23N 33°52' E 132°41'0 0.0
2017-Dec-16 06:56N 33°52' E 132°41'0 0.0
2017-Dec-16 06:26N 33°52' E 132°41'0 0.1
2017-Dec-16 05:52N 33°52' E 132°41'3 8.1
2017-Dec-16 05:28N 33°55' E 132°42'11 0.3
2017-Dec-14 09:17N 34°06' E 132°42'412.9
2017-Dec-14 09:00N 34°05' E 132°38'612.0
2017-Dec-14 08:30N 34°03' E 132°31'612.4
2017-Dec-14 08:00N 34°06' E 132°24'612.3
2017-Dec-14 07:30N 34°10' E 132°18'4 7.1
2017-Dec-14 06:54N 34°13' E 132°15'0 0.0
2017-Dec-14 06:24N 34°13' E 132°15'0 0.0
2017-Dec-14 06:00N 34°13' E 132°15'1 1.2
2017-Dec-14 05:30N 34°13' E 132°15'0 0.0
2017-Dec-14 04:58N 34°13' E 132°15'0 0.1
2017-Dec-14 04:04N 34°13' E 132°15'0 0.0
2017-Dec-14 03:46N 34°13' E 132°15'0 0.0
2017-Dec-14 03:28N 34°13' E 132°15'0 0.0
2017-Dec-14 02:58N 34°13' E 132°15'0 0.0
2017-Dec-14 02:28N 34°13' E 132°15'0 0.0
2017-Dec-14 01:43N 34°13' E 132°15'0 0.0
2017-Dec-14 01:25N 34°13' E 132°15'0 0.1
2017-Dec-14 00:55N 34°13' E 132°15'0 0.1
2017-Dec-14 00:25N 34°13' E 132°15'0 0.0
2017-Dec-13 23:58N 34°13' E 132°15'2 4.9
2017-Dec-13 23:30N 34°11' E 132°17'611.6
2017-Dec-13 22:57N 34°07' E 132°23'711.9
2017-Dec-13 22:20N 34°03' E 132°31'310.9
2017-Dec-13 22:00N 34°03' E 132°35'611.7
2017-Dec-13 21:29N 34°06' E 132°41'7610.5
2017-Dec-13 14:16N 34°26' E 134°10'310.3
2017-Dec-13 13:57N 34°25' E 134°13'510.4
2017-Dec-13 13:30N 34°25' E 134°19'511.1
2017-Dec-13 13:00N 34°27' E 134°25'611.7
2017-Dec-13 12:30N 34°31' E 134°30'611.6
2017-Dec-13 12:00N 34°35' E 134°35'611.5
2017-Dec-13 11:30N 34°41' E 134°37'6 2.2
2017-Dec-13 08:55N 34°46' E 134°36'1 3.0
2017-Dec-13 08:31N 34°46' E 134°37'0 0.0
2017-Dec-13 07:56N 34°46' E 134°37'0 0.0
2017-Dec-13 07:26N 34°46' E 134°37'0 0.0
2017-Dec-13 06:50N 34°46' E 134°37'0 0.0
2017-Dec-13 06:26N 34°46' E 134°37'0 0.7
2017-Dec-13 06:00N 34°45' E 134°37'4 8.8
2017-Dec-13 05:30N 34°43' E 134°42'510.3
2017-Dec-13 05:00N 34°40' E 134°47'510.0
2017-Dec-13 04:31N 34°38' E 134°53'5 9.8
2017-Dec-13 04:00N 34°38' E 134°59'4 8.7
2017-Dec-13 03:30N 34°36' E 135°04'5 9.7
2017-Dec-13 03:00N 34°36' E 135°09'510.2
2017-Dec-13 02:31N 34°38' E 135°15'1 2.0
2017-Dec-13 02:00N 34°39' E 135°15'0 0.8
2017-Dec-13 01:30N 34°39' E 135°15'1 1.5
2017-Dec-13 01:00N 34°40' E 135°14'0 0.3
2017-Dec-13 00:30N 34°40' E 135°15'2 4.2
2017-Dec-13 00:00N 34°41' E 135°17'0 0.0
2017-Dec-12 23:29N 34°41' E 135°17'2 4.0
2017-Dec-12 23:00N 34°39' E 135°15'1 1.6
2017-Dec-12 22:30N 34°38' E 135°15'0 0.0
2017-Dec-12 22:00N 34°38' E 135°15'0 0.0
2017-Dec-12 21:30N 34°38' E 135°15'0 0.0
2017-Dec-12 21:00N 34°38' E 135°15'0 0.0
2017-Dec-12 20:30N 34°38' E 135°15'0 0.0
2017-Dec-12 20:00N 34°38' E 135°15'0 0.0
2017-Dec-12 19:30N 34°38' E 135°15'0 0.0
2017-Dec-12 19:00N 34°38' E 135°15'0 0.0
2017-Dec-12 18:30N 34°38' E 135°15'0 0.0
2017-Dec-12 18:00N 34°38' E 135°15'0 0.0
2017-Dec-12 17:30N 34°38' E 135°15'3 6.3
2017-Dec-12 17:00N 34°37' E 135°12'713.4
2017-Dec-12 16:30N 34°35' E 135°04'713.3
2017-Dec-12 16:00N 34°36' E 134°56'714.4
2017-Dec-12 15:30N 34°33' E 134°48'713.8
2017-Dec-12 15:01N 34°30' E 134°40'713.4
2017-Dec-12 14:30N 34°28' E 134°33'713.3
2017-Dec-12 13:59N 34°25' E 134°25'7 0.9
2017-Dec-12 06:35N 34°24' E 134°16'212.3
2017-Dec-12 06:26N 34°25' E 134°19'512.5
2017-Dec-12 06:00N 34°26' E 134°25'612.7
2017-Dec-12 05:31N 34°29' E 134°32'612.4
2017-Dec-12 05:01N 34°31' E 134°39'612.4
2017-Dec-12 04:31N 34°33' E 134°46'612.1
2017-Dec-12 04:01N 34°36' E 134°53'611.8
2017-Dec-12 03:31N 34°38' E 134°59'510.5
2017-Dec-12 03:01N 34°36' E 135°05'611.5
2017-Dec-12 02:31N 34°37' E 135°12'3 5.3
2017-Dec-12 01:58N 34°40' E 135°14'0 0.0
2017-Dec-12 01:28N 34°40' E 135°14'1 2.4
2017-Dec-12 01:00N 34°40' E 135°15'1 2.4
2017-Dec-12 00:30N 34°41' E 135°17'0 0.0
2017-Dec-12 00:00N 34°41' E 135°17'0 0.0
2017-Dec-11 23:30N 34°41' E 135°17'2 3.4
2017-Dec-11 23:00N 34°40' E 135°15'1 1.6
2017-Dec-11 22:30N 34°39' E 135°15'0 0.0
2017-Dec-11 22:00N 34°39' E 135°15'0 0.0
2017-Dec-11 21:30N 34°39' E 135°15'0 0.0
2017-Dec-11 21:00N 34°39' E 135°15'0 0.1
2017-Dec-11 20:30N 34°39' E 135°15'0 0.0
2017-Dec-11 20:00N 34°39' E 135°15'0 0.0
2017-Dec-11 19:30N 34°39' E 135°15'0 0.1
2017-Dec-11 19:00N 34°39' E 135°15'0 0.0
2017-Dec-11 18:30N 34°39' E 135°15'0 0.1
2017-Dec-11 18:00N 34°39' E 135°15'0 0.1
2017-Dec-11 17:30N 34°39' E 135°15'0 0.0
2017-Dec-11 17:00N 34°39' E 135°15'0 0.0
2017-Dec-11 16:30N 34°39' E 135°15'0 0.1
2017-Dec-11 16:00N 34°39' E 135°15'0 0.0
2017-Dec-11 15:30N 34°39' E 135°15'0 0.0
2017-Dec-11 15:00N 34°39' E 135°15'0 0.1
2017-Dec-11 14:30N 34°39' E 135°15'0 0.0
2017-Dec-11 14:00N 34°39' E 135°15'0 0.0
2017-Dec-11 13:30N 34°39' E 135°15'0 0.0
2017-Dec-11 13:00N 34°39' E 135°15'3 6.9
2017-Dec-11 12:31N 34°37' E 135°12'713.5
2017-Dec-11 12:01N 34°35' E 135°04'612.4
2017-Dec-11 11:30N 34°36' E 134°56'714.6
2017-Dec-11 11:00N 34°40' E 134°49'714.0
2017-Dec-11 10:30N 34°43' E 134°41'5 1.4
2017-Dec-11 06:40N 34°46' E 134°36'0 1.9
2017-Dec-11 06:27N 34°46' E 134°36'511.9
2017-Dec-11 06:00N 34°44' E 134°42'612.3
2017-Dec-11 05:30N 34°41' E 134°49'612.8
2017-Dec-11 05:00N 34°37' E 134°55'613.0
2017-Dec-11 04:30N 34°36' E 135°03'612.4
2017-Dec-11 04:00N 34°37' E 135°11'510.5
2017-Dec-11 03:30N 34°40' E 135°15'1 2.2
2017-Dec-11 02:58N 34°41' E 135°17'0 0.0
2017-Dec-11 02:28N 34°41' E 135°17'0 0.2
2017-Dec-11 02:00N 34°41' E 135°17'2 4.4
2017-Dec-11 01:30N 34°39' E 135°15'0 0.0
2017-Dec-11 01:01N 34°39' E 135°15'0 0.0
2017-Dec-11 00:28N 34°39' E 135°15'0 0.0
2017-Dec-11 00:01N 34°39' E 135°15'0 0.0
2017-Dec-10 23:30N 34°39' E 135°15'0 1.0
2017-Dec-10 23:00N 34°39' E 135°15'0 0.1
2017-Dec-10 22:25N 34°39' E 135°15'0 0.0
2017-Dec-10 21:58N 34°39' E 135°15'0 0.0
2017-Dec-10 21:28N 34°39' E 135°15'0 0.0
2017-Dec-10 20:58N 34°39' E 135°15'0 0.0
2017-Dec-10 20:28N 34°39' E 135°15'0 0.0
2017-Dec-10 19:58N 34°39' E 135°15'2 3.5
2017-Dec-10 19:30N 34°37' E 135°14'612.6
2017-Dec-10 19:00N 34°35' E 135°07'611.9
2017-Dec-10 18:30N 34°37' E 135°00'612.0
2017-Dec-10 18:00N 34°35' E 134°54'612.0
2017-Dec-10 17:30N 34°32' E 134°47'612.6
2017-Dec-10 17:00N 34°30' E 134°40'612.6
2017-Dec-10 16:30N 34°28' E 134°33'612.4
2017-Dec-10 16:00N 34°25' E 134°26'8511.1
2017-Dec-10 08:21N 34°02' E 132°47'613.1
2017-Dec-10 07:55N 33°57' E 132°43'813.0
2017-Dec-10 07:18N 33°53' E 132°34'913.2
2017-Dec-10 06:38N 33°50' E 132°24'213.2
2017-Dec-10 06:30N 33°50' E 132°22'613.2
2017-Dec-10 06:01N 33°50' E 132°14'713.3
2017-Dec-10 05:30N 33°47' E 132°07'612.9
2017-Dec-10 05:00N 33°45' E 131°59'612.8
2017-Dec-10 04:30N 33°46' E 131°52'612.6
2017-Dec-10 04:00N 33°47' E 131°44'612.2
2017-Dec-10 03:30N 33°48' E 131°37'611.6
2017-Dec-10 03:01N 33°49' E 131°30'612.0
2017-Dec-10 02:30N 33°50' E 131°23'612.2
2017-Dec-10 02:00N 33°52' E 131°16'611.6
2017-Dec-10 01:30N 33°54' E 131°10'612.0
2017-Dec-10 01:00N 33°58' E 131°04'611.8
2017-Dec-10 00:30N 33°57' E 130°57'5 9.0
2017-Dec-10 00:00N 33°57' E 130°51'612.2
2017-Dec-09 23:30N 33°58' E 130°44'612.4
2017-Dec-09 23:00N 33°57' E 130°37'612.5
2017-Dec-09 22:30N 33°55' E 130°29'612.7
2017-Dec-09 22:00N 33°50' E 130°25'713.1
2017-Dec-09 21:30N 33°45' E 130°20'611.2
2017-Dec-09 21:00N 33°40' E 130°17'611.6
2017-Dec-09 20:30N 33°39' E 130°24'1 1.2
2017-Dec-09 19:58N 33°39' E 130°24'0 0.0
2017-Dec-09 19:28N 33°39' E 130°24'0 0.0
2017-Dec-09 18:58N 33°39' E 130°24'0 0.0
2017-Dec-09 18:28N 33°39' E 130°24'0 0.0
2017-Dec-09 17:58N 33°39' E 130°24'0 0.0
2017-Dec-09 17:28N 33°39' E 130°24'0 0.0
2017-Dec-09 16:58N 33°39' E 130°24'0 0.0
2017-Dec-09 16:28N 33°39' E 130°24'0 0.0
2017-Dec-09 15:58N 33°39' E 130°24'0 0.0
2017-Dec-09 15:28N 33°39' E 130°24'0 0.0
2017-Dec-09 14:58N 33°39' E 130°24'0 0.0
2017-Dec-09 14:28N 33°39' E 130°24'0 0.0
2017-Dec-09 13:58N 33°39' E 130°24'0 0.0
2017-Dec-09 13:28N 33°39' E 130°24'0 0.0
2017-Dec-09 12:58N 33°39' E 130°24'0 0.0
2017-Dec-09 12:28N 33°39' E 130°24'0 0.0
2017-Dec-09 11:58N 33°39' E 130°24'0 0.0
2017-Dec-09 11:28N 33°39' E 130°24'0 0.0
2017-Dec-09 10:58N 33°39' E 130°24'0 0.0
2017-Dec-09 10:28N 33°39' E 130°24'0 0.0
2017-Dec-09 09:58N 33°39' E 130°24'0 0.0
2017-Dec-09 09:28N 33°39' E 130°24'0 0.0
2017-Dec-09 08:58N 33°39' E 130°24'0 0.0
2017-Dec-09 08:28N 33°39' E 130°24'0 0.0
2017-Dec-09 07:58N 33°39' E 130°24'0 0.0
2017-Dec-09 07:28N 33°39' E 130°24'0 0.0
2017-Dec-09 06:58N 33°39' E 130°24'0 0.0
2017-Dec-09 06:28N 33°39' E 130°24'0 0.7
2017-Dec-09 05:59N 33°39' E 130°24'0 0.0
2017-Dec-09 05:29N 33°39' E 130°24'0 0.0
2017-Dec-09 04:59N 33°39' E 130°24'0 0.0
2017-Dec-09 04:29N 33°39' E 130°24'0 0.0
2017-Dec-09 03:59N 33°39' E 130°24'1 2.8
2017-Dec-09 03:30N 33°39' E 130°23'611.3
2017-Dec-09 03:00N 33°41' E 130°16'611.9
2017-Dec-09 02:31N 33°46' E 130°20'713.2
2017-Dec-09 02:00N 33°51' E 130°25'713.0
2017-Dec-09 01:30N 33°56' E 130°30'612.4
2017-Dec-09 01:00N 33°57' E 130°38'612.1
2017-Dec-09 00:30N 33°58' E 130°45'2 3.8
2017-Dec-09 00:00N 33°56' E 130°46'0 0.0
2017-Dec-08 23:30N 33°56' E 130°46'0 0.0
2017-Dec-08 23:00N 33°56' E 130°46'0 0.8
2017-Dec-08 22:31N 33°56' E 130°46'3 5.9
2017-Dec-08 22:01N 33°58' E 130°43'611.7
2017-Dec-08 21:30N 33°57' E 130°36'612.1
2017-Dec-08 21:01N 33°55' E 130°29'611.5
2017-Dec-08 20:31N 33°51' E 130°25'612.4
2017-Dec-08 20:00N 33°46' E 130°20'611.7
2017-Dec-08 19:30N 33°41' E 130°16'5 9.9
2017-Dec-08 19:01N 33°38' E 130°20'0 0.0
2017-Dec-08 18:29N 33°38' E 130°20'0 0.0
2017-Dec-08 17:59N 33°38' E 130°20'0 0.0
2017-Dec-08 17:29N 33°38' E 130°20'0 0.0
2017-Dec-08 16:53N 33°38' E 130°20'0 0.0
2017-Dec-08 16:29N 33°38' E 130°20'0 0.0
2017-Dec-08 15:59N 33°38' E 130°20'0 0.0
2017-Dec-08 15:29N 33°38' E 130°20'0 0.0
2017-Dec-08 14:59N 33°38' E 130°20'0 0.0
2017-Dec-08 14:29N 33°38' E 130°20'0 0.0
2017-Dec-08 13:59N 33°38' E 130°20'0 0.0
2017-Dec-08 13:29N 33°38' E 130°20'0 0.0
2017-Dec-08 12:59N 33°38' E 130°20'0 0.0
2017-Dec-08 12:29N 33°38' E 130°20'0 0.0
2017-Dec-08 11:59N 33°38' E 130°20'0 0.0
2017-Dec-08 11:29N 33°38' E 130°20'0 0.0
2017-Dec-08 10:59N 33°38' E 130°20'0 0.0
2017-Dec-08 10:29N 33°38' E 130°20'0 0.7
2017-Dec-08 10:00N 33°38' E 130°21'3 6.5
2017-Dec-08 09:30N 33°39' E 130°24'0 0.0
2017-Dec-08 08:58N 33°39' E 130°24'0 0.0
2017-Dec-08 08:28N 33°39' E 130°24'0 0.0
2017-Dec-08 07:58N 33°39' E 130°24'0 0.0
2017-Dec-08 07:28N 33°39' E 130°24'0 0.0
2017-Dec-08 06:58N 33°39' E 130°24'0 0.0
2017-Dec-08 06:28N 33°39' E 130°24'0 0.0
2017-Dec-08 05:58N 33°39' E 130°24'0 0.0
2017-Dec-08 05:28N 33°39' E 130°24'0 0.0
2017-Dec-08 04:58N 33°39' E 130°24'0 0.0
2017-Dec-08 04:31N 33°39' E 130°24'0 0.0
2017-Dec-08 04:00N 33°39' E 130°24'0 0.0
2017-Dec-08 03:30N 33°39' E 130°24'0 0.0
2017-Dec-08 03:00N 33°39' E 130°24'0 0.8
2017-Dec-08 02:30N 33°39' E 130°24'611.4
2017-Dec-08 02:00N 33°40' E 130°17'611.3
2017-Dec-08 01:30N 33°45' E 130°19'613.0
2017-Dec-08 01:01N 33°50' E 130°24'713.3
2017-Dec-08 00:31N 33°55' E 130°29'611.6
2017-Dec-08 00:00N 33°57' E 130°35'611.1
2017-Dec-07 23:31N 33°58' E 130°42'611.2
2017-Dec-07 23:01N 33°58' E 130°49'510.2
2017-Dec-07 22:31N 33°55' E 130°54'4 7.2
2017-Dec-07 22:01N 33°57' E 130°57'4 7.5
2017-Dec-07 21:30N 33°58' E 131°01'611.8
2017-Dec-07 21:01N 33°55' E 131°07'612.1
2017-Dec-07 20:30N 33°52' E 131°13'612.2
2017-Dec-07 20:00N 33°50' E 131°21'612.4
2017-Dec-07 19:30N 33°49' E 131°28'612.3
2017-Dec-07 19:00N 33°48' E 131°35'612.2
2017-Dec-07 18:30N 33°47' E 131°42'612.2
2017-Dec-07 18:00N 33°46' E 131°50'612.6
2017-Dec-07 17:30N 33°45' E 131°57'613.0
2017-Dec-07 17:00N 33°46' E 132°05'813.5
2017-Dec-07 16:23N 33°50' E 132°14'513.1
2017-Dec-07 15:59N 33°50' E 132°20'1112.9
2017-Dec-07 15:10N 33°53' E 132°32'312.6
2017-Dec-07 14:54N 33°54' E 132°36'512.0
2017-Dec-07 14:28N 33°57' E 132°42'8811.3
2017-Dec-07 06:43N 34°25' E 134°22'312.6
2017-Dec-07 06:30N 34°26' E 134°25'713.2
2017-Dec-07 06:00N 34°29' E 134°32'713.4
2017-Dec-07 05:30N 34°31' E 134°40'714.0
2017-Dec-07 05:00N 34°34' E 134°48'714.8
2017-Dec-07 04:30N 34°37' E 134°56'713.6
2017-Dec-07 04:00N 34°36' E 135°04'713.5
2017-Dec-07 03:31N 34°37' E 135°12'510.3
2017-Dec-07 03:01N 34°41' E 135°17'0 0.2
2017-Dec-07 02:25N 34°41' E 135°17'0 0.8
2017-Dec-07 02:01N 34°41' E 135°17'0 0.0
2017-Dec-07 01:30N 34°41' E 135°17'0 0.6
2017-Dec-07 01:00N 34°41' E 135°17'0 0.1
2017-Dec-07 00:28N 34°41' E 135°17'0 0.0
2017-Dec-06 23:58N 34°41' E 135°17'0 0.0
2017-Dec-06 23:28N 34°41' E 135°17'0 0.7
2017-Dec-06 23:01N 34°41' E 135°16'0 0.1
2017-Dec-06 22:27N 34°41' E 135°17'0 0.1
2017-Dec-06 22:00N 34°41' E 135°16'0 0.1
2017-Dec-06 21:30N 34°41' E 135°17'0 0.0
2017-Dec-06 21:00N 34°41' E 135°17'  
Track history (hours):
 
Tides and Currents Weather Stations Pressure Air Temp Water Temp Dewpoint Dewpoint Depression Visibility Wind Speed Wind Dir Waves Ship Positions

Koyo

Last reported at 2017-Dec-16 08:08 UTC. Time now 2017-Dec-16 09:00 UTC.
Position N 33°52' E 132°41'.

Length 80 m; draft 3.7 m.

Type: Cargo ship. MMSI: 431301812.

Date/timePositionNaut miles runAvg speedWind from/ knotsBaromVisibWave heightAir tempDewpointWater temp
2017-Dec-16 08:08N 33°52' E 132°41'0 0.0
2017-Dec-16 07:50N 33°52' E 132°41'0 0.0
2017-Dec-16 07:23N 33°52' E 132°41'0 0.0
2017-Dec-16 06:56N 33°52' E 132°41'0 0.0
2017-Dec-16 06:26N 33°52' E 132°41'0 0.1
2017-Dec-16 05:52N 33°52' E 132°41'3 8.1
2017-Dec-16 05:28N 33°55' E 132°42'11 0.3
2017-Dec-14 09:17N 34°06' E 132°42'412.9
2017-Dec-14 09:00N 34°05' E 132°38'612.0
2017-Dec-14 08:30N 34°03' E 132°31'612.4
2017-Dec-14 08:00N 34°06' E 132°24'612.3
2017-Dec-14 07:30N 34°10' E 132°18'4 7.1
2017-Dec-14 06:54N 34°13' E 132°15'0 0.0
2017-Dec-14 06:24N 34°13' E 132°15'0 0.0
2017-Dec-14 06:00N 34°13' E 132°15'1 1.2
2017-Dec-14 05:30N 34°13' E 132°15'0 0.0
2017-Dec-14 04:58N 34°13' E 132°15'0 0.1
2017-Dec-14 04:04N 34°13' E 132°15'0 0.0
2017-Dec-14 03:46N 34°13' E 132°15'0 0.0
2017-Dec-14 03:28N 34°13' E 132°15'0 0.0
2017-Dec-14 02:58N 34°13' E 132°15'0 0.0
2017-Dec-14 02:28N 34°13' E 132°15'0 0.0
2017-Dec-14 01:43N 34°13' E 132°15'0 0.0
2017-Dec-14 01:25N 34°13' E 132°15'0 0.1
2017-Dec-14 00:55N 34°13' E 132°15'0 0.1
2017-Dec-14 00:25N 34°13' E 132°15'0 0.0
2017-Dec-13 23:58N 34°13' E 132°15'2 4.9
2017-Dec-13 23:30N 34°11' E 132°17'611.6
2017-Dec-13 22:57N 34°07' E 132°23'711.9
2017-Dec-13 22:20N 34°03' E 132°31'310.9
2017-Dec-13 22:00N 34°03' E 132°35'611.7
2017-Dec-13 21:29N 34°06' E 132°41'7610.5
2017-Dec-13 14:16N 34°26' E 134°10'310.3
2017-Dec-13 13:57N 34°25' E 134°13'510.4
2017-Dec-13 13:30N 34°25' E 134°19'511.1
2017-Dec-13 13:00N 34°27' E 134°25'611.7
2017-Dec-13 12:30N 34°31' E 134°30'611.6
2017-Dec-13 12:00N 34°35' E 134°35'611.5
2017-Dec-13 11:30N 34°41' E 134°37'6 2.2
2017-Dec-13 08:55N 34°46' E 134°36'1 3.0
2017-Dec-13 08:31N 34°46' E 134°37'0 0.0
2017-Dec-13 07:56N 34°46' E 134°37'0 0.0
2017-Dec-13 07:26N 34°46' E 134°37'0 0.0
2017-Dec-13 06:50N 34°46' E 134°37'0 0.0
2017-Dec-13 06:26N 34°46' E 134°37'0 0.7
2017-Dec-13 06:00N 34°45' E 134°37'4 8.8
2017-Dec-13 05:30N 34°43' E 134°42'510.3
2017-Dec-13 05:00N 34°40' E 134°47'510.0
2017-Dec-13 04:31N 34°38' E 134°53'5 9.8
2017-Dec-13 04:00N 34°38' E 134°59'4 8.7
2017-Dec-13 03:30N 34°36' E 135°04'5 9.7
2017-Dec-13 03:00N 34°36' E 135°09'510.2
2017-Dec-13 02:31N 34°38' E 135°15'1 2.0
2017-Dec-13 02:00N 34°39' E 135°15'0 0.8
2017-Dec-13 01:30N 34°39' E 135°15'1 1.5
2017-Dec-13 01:00N 34°40' E 135°14'0 0.3
2017-Dec-13 00:30N 34°40' E 135°15'2 4.2
2017-Dec-13 00:00N 34°41' E 135°17'0 0.0
2017-Dec-12 23:29N 34°41' E 135°17'2 4.0
2017-Dec-12 23:00N 34°39' E 135°15'1 1.6
2017-Dec-12 22:30N 34°38' E 135°15'0 0.0
2017-Dec-12 22:00N 34°38' E 135°15'0 0.0
2017-Dec-12 21:30N 34°38' E 135°15'0 0.0
2017-Dec-12 21:00N 34°38' E 135°15'0 0.0
2017-Dec-12 20:30N 34°38' E 135°15'0 0.0
2017-Dec-12 20:00N 34°38' E 135°15'0 0.0
2017-Dec-12 19:30N 34°38' E 135°15'0 0.0
2017-Dec-12 19:00N 34°38' E 135°15'0 0.0
2017-Dec-12 18:30N 34°38' E 135°15'0 0.0
2017-Dec-12 18:00N 34°38' E 135°15'0 0.0
2017-Dec-12 17:30N 34°38' E 135°15'3 6.3
2017-Dec-12 17:00N 34°37' E 135°12'713.4
2017-Dec-12 16:30N 34°35' E 135°04'713.3
2017-Dec-12 16:00N 34°36' E 134°56'714.4
2017-Dec-12 15:30N 34°33' E 134°48'713.8
2017-Dec-12 15:01N 34°30' E 134°40'713.4
2017-Dec-12 14:30N 34°28' E 134°33'713.3
2017-Dec-12 13:59N 34°25' E 134°25'7 0.9
2017-Dec-12 06:35N 34°24' E 134°16'212.3
2017-Dec-12 06:26N 34°25' E 134°19'512.5
2017-Dec-12 06:00N 34°26' E 134°25'612.7
2017-Dec-12 05:31N 34°29' E 134°32'612.4
2017-Dec-12 05:01N 34°31' E 134°39'612.4
2017-Dec-12 04:31N 34°33' E 134°46'612.1
2017-Dec-12 04:01N 34°36' E 134°53'611.8
2017-Dec-12 03:31N 34°38' E 134°59'510.5
2017-Dec-12 03:01N 34°36' E 135°05'611.5
2017-Dec-12 02:31N 34°37' E 135°12'3 5.3
2017-Dec-12 01:58N 34°40' E 135°14'0 0.0
2017-Dec-12 01:28N 34°40' E 135°14'1 2.4
2017-Dec-12 01:00N 34°40' E 135°15'1 2.4
2017-Dec-12 00:30N 34°41' E 135°17'0 0.0
2017-Dec-12 00:00N 34°41' E 135°17'0 0.0
2017-Dec-11 23:30N 34°41' E 135°17'2 3.4
2017-Dec-11 23:00N 34°40' E 135°15'1 1.6
2017-Dec-11 22:30N 34°39' E 135°15'0 0.0
2017-Dec-11 22:00N 34°39' E 135°15'0 0.0
2017-Dec-11 21:30N 34°39' E 135°15'0 0.0
2017-Dec-11 21:00N 34°39' E 135°15'0 0.1
2017-Dec-11 20:30N 34°39' E 135°15'0 0.0
2017-Dec-11 20:00N 34°39' E 135°15'0 0.0
2017-Dec-11 19:30N 34°39' E 135°15'0 0.1
2017-Dec-11 19:00N 34°39' E 135°15'0 0.0
2017-Dec-11 18:30N 34°39' E 135°15'0 0.1
2017-Dec-11 18:00N 34°39' E 135°15'0 0.1
2017-Dec-11 17:30N 34°39' E 135°15'0 0.0
2017-Dec-11 17:00N 34°39' E 135°15'0 0.0
2017-Dec-11 16:30N 34°39' E 135°15'0 0.1
2017-Dec-11 16:00N 34°39' E 135°15'0 0.0
2017-Dec-11 15:30N 34°39' E 135°15'0 0.0
2017-Dec-11 15:00N 34°39' E 135°15'0 0.1
2017-Dec-11 14:30N 34°39' E 135°15'0 0.0
2017-Dec-11 14:00N 34°39' E 135°15'0 0.0
2017-Dec-11 13:30N 34°39' E 135°15'0 0.0
2017-Dec-11 13:00N 34°39' E 135°15'3 6.9
2017-Dec-11 12:31N 34°37' E 135°12'713.5
2017-Dec-11 12:01N 34°35' E 135°04'612.4
2017-Dec-11 11:30N 34°36' E 134°56'714.6
2017-Dec-11 11:00N 34°40' E 134°49'714.0
2017-Dec-11 10:30N 34°43' E 134°41'5 1.4
2017-Dec-11 06:40N 34°46' E 134°36'0 1.9
2017-Dec-11 06:27N 34°46' E 134°36'511.9
2017-Dec-11 06:00N 34°44' E 134°42'612.3
2017-Dec-11 05:30N 34°41' E 134°49'612.8
2017-Dec-11 05:00N 34°37' E 134°55'613.0
2017-Dec-11 04:30N 34°36' E 135°03'612.4
2017-Dec-11 04:00N 34°37' E 135°11'510.5
2017-Dec-11 03:30N 34°40' E 135°15'1 2.2
2017-Dec-11 02:58N 34°41' E 135°17'0 0.0
2017-Dec-11 02:28N 34°41' E 135°17'0 0.2
2017-Dec-11 02:00N 34°41' E 135°17'2 4.4
2017-Dec-11 01:30N 34°39' E 135°15'0 0.0
2017-Dec-11 01:01N 34°39' E 135°15'0 0.0
2017-Dec-11 00:28N 34°39' E 135°15'0 0.0
2017-Dec-11 00:01N 34°39' E 135°15'0 0.0
2017-Dec-10 23:30N 34°39' E 135°15'0 1.0
2017-Dec-10 23:00N 34°39' E 135°15'0 0.1
2017-Dec-10 22:25N 34°39' E 135°15'0 0.0
2017-Dec-10 21:58N 34°39' E 135°15'0 0.0
2017-Dec-10 21:28N 34°39' E 135°15'0 0.0
2017-Dec-10 20:58N 34°39' E 135°15'0 0.0
2017-Dec-10 20:28N 34°39' E 135°15'0 0.0
2017-Dec-10 19:58N 34°39' E 135°15'2 3.5
2017-Dec-10 19:30N 34°37' E 135°14'612.6
2017-Dec-10 19:00N 34°35' E 135°07'611.9
2017-Dec-10 18:30N 34°37' E 135°00'612.0
2017-Dec-10 18:00N 34°35' E 134°54'612.0
2017-Dec-10 17:30N 34°32' E 134°47'612.6
2017-Dec-10 17:00N 34°30' E 134°40'612.6
2017-Dec-10 16:30N 34°28' E 134°33'612.4
2017-Dec-10 16:00N 34°25' E 134°26'8511.1
2017-Dec-10 08:21N 34°02' E 132°47'613.1
2017-Dec-10 07:55N 33°57' E 132°43'813.0
2017-Dec-10 07:18N 33°53' E 132°34'913.2
2017-Dec-10 06:38N 33°50' E 132°24'213.2
2017-Dec-10 06:30N 33°50' E 132°22'613.2
2017-Dec-10 06:01N 33°50' E 132°14'713.3
2017-Dec-10 05:30N 33°47' E 132°07'612.9
2017-Dec-10 05:00N 33°45' E 131°59'612.8
2017-Dec-10 04:30N 33°46' E 131°52'612.6
2017-Dec-10 04:00N 33°47' E 131°44'612.2
2017-Dec-10 03:30N 33°48' E 131°37'611.6
2017-Dec-10 03:01N 33°49' E 131°30'612.0
2017-Dec-10 02:30N 33°50' E 131°23'612.2
2017-Dec-10 02:00N 33°52' E 131°16'611.6
2017-Dec-10 01:30N 33°54' E 131°10'612.0
2017-Dec-10 01:00N 33°58' E 131°04'611.8
2017-Dec-10 00:30N 33°57' E 130°57'5 9.0
2017-Dec-10 00:00N 33°57' E 130°51'612.2
2017-Dec-09 23:30N 33°58' E 130°44'612.4
2017-Dec-09 23:00N 33°57' E 130°37'612.5
2017-Dec-09 22:30N 33°55' E 130°29'612.7
2017-Dec-09 22:00N 33°50' E 130°25'713.1
2017-Dec-09 21:30N 33°45' E 130°20'611.2
2017-Dec-09 21:00N 33°40' E 130°17'611.6
2017-Dec-09 20:30N 33°39' E 130°24'1 1.2
2017-Dec-09 19:58N 33°39' E 130°24'0 0.0
2017-Dec-09 19:28N 33°39' E 130°24'0 0.0
2017-Dec-09 18:58N 33°39' E 130°24'0 0.0
2017-Dec-09 18:28N 33°39' E 130°24'0 0.0
2017-Dec-09 17:58N 33°39' E 130°24'0 0.0
2017-Dec-09 17:28N 33°39' E 130°24'0 0.0
2017-Dec-09 16:58N 33°39' E 130°24'0 0.0
2017-Dec-09 16:28N 33°39' E 130°24'0 0.0
2017-Dec-09 15:58N 33°39' E 130°24'0 0.0
2017-Dec-09 15:28N 33°39' E 130°24'0 0.0
2017-Dec-09 14:58N 33°39' E 130°24'0 0.0
2017-Dec-09 14:28N 33°39' E 130°24'0 0.0
2017-Dec-09 13:58N 33°39' E 130°24'0 0.0
2017-Dec-09 13:28N 33°39' E 130°24'0 0.0
2017-Dec-09 12:58N 33°39' E 130°24'0 0.0
2017-Dec-09 12:28N 33°39' E 130°24'0 0.0
2017-Dec-09 11:58N 33°39' E 130°24'0 0.0
2017-Dec-09 11:28N 33°39' E 130°24'0 0.0
2017-Dec-09 10:58N 33°39' E 130°24'0 0.0
2017-Dec-09 10:28N 33°39' E 130°24'0 0.0
2017-Dec-09 09:58N 33°39' E 130°24'0 0.0
2017-Dec-09 09:28N 33°39' E 130°24'0 0.0
2017-Dec-09 08:58N 33°39' E 130°24'0 0.0
2017-Dec-09 08:28N 33°39' E 130°24'0 0.0
2017-Dec-09 07:58N 33°39' E 130°24'0 0.0
2017-Dec-09 07:28N 33°39' E 130°24'0 0.0
2017-Dec-09 06:58N 33°39' E 130°24'0 0.0
2017-Dec-09 06:28N 33°39' E 130°24'0 0.7
2017-Dec-09 05:59N 33°39' E 130°24'0 0.0
2017-Dec-09 05:29N 33°39' E 130°24'0 0.0
2017-Dec-09 04:59N 33°39' E 130°24'0 0.0
2017-Dec-09 04:29N 33°39' E 130°24'0 0.0
2017-Dec-09 03:59N 33°39' E 130°24'1 2.8
2017-Dec-09 03:30N 33°39' E 130°23'611.3
2017-Dec-09 03:00N 33°41' E 130°16'611.9
2017-Dec-09 02:31N 33°46' E 130°20'713.2
2017-Dec-09 02:00N 33°51' E 130°25'713.0
2017-Dec-09 01:30N 33°56' E 130°30'612.4
2017-Dec-09 01:00N 33°57' E 130°38'612.1
2017-Dec-09 00:30N 33°58' E 130°45'2 3.8
2017-Dec-09 00:00N 33°56' E 130°46'0 0.0
2017-Dec-08 23:30N 33°56' E 130°46'0 0.0
2017-Dec-08 23:00N 33°56' E 130°46'0 0.8
2017-Dec-08 22:31N 33°56' E 130°46'3 5.9
2017-Dec-08 22:01N 33°58' E 130°43'611.7
2017-Dec-08 21:30N 33°57' E 130°36'612.1
2017-Dec-08 21:01N 33°55' E 130°29'611.5
2017-Dec-08 20:31N 33°51' E 130°25'612.4
2017-Dec-08 20:00N 33°46' E 130°20'611.7
2017-Dec-08 19:30N 33°41' E 130°16'5 9.9
2017-Dec-08 19:01N 33°38' E 130°20'0 0.0
2017-Dec-08 18:29N 33°38' E 130°20'0 0.0
2017-Dec-08 17:59N 33°38' E 130°20'0 0.0
2017-Dec-08 17:29N 33°38' E 130°20'0 0.0
2017-Dec-08 16:53N 33°38' E 130°20'0 0.0
2017-Dec-08 16:29N 33°38' E 130°20'0 0.0
2017-Dec-08 15:59N 33°38' E 130°20'0 0.0
2017-Dec-08 15:29N 33°38' E 130°20'0 0.0
2017-Dec-08 14:59N 33°38' E 130°20'0 0.0
2017-Dec-08 14:29N 33°38' E 130°20'0 0.0
2017-Dec-08 13:59N 33°38' E 130°20'0 0.0
2017-Dec-08 13:29N 33°38' E 130°20'0 0.0
2017-Dec-08 12:59N 33°38' E 130°20'0 0.0
2017-Dec-08 12:29N 33°38' E 130°20'0 0.0
2017-Dec-08 11:59N 33°38' E 130°20'0 0.0
2017-Dec-08 11:29N 33°38' E 130°20'0 0.0
2017-Dec-08 10:59N 33°38' E 130°20'0 0.0
2017-Dec-08 10:29N 33°38' E 130°20'0 0.7
2017-Dec-08 10:00N 33°38' E 130°21'3 6.5
2017-Dec-08 09:30N 33°39' E 130°24'0 0.0
2017-Dec-08 08:58N 33°39' E 130°24'0 0.0
2017-Dec-08 08:28N 33°39' E 130°24'0 0.0
2017-Dec-08 07:58N 33°39' E 130°24'0 0.0
2017-Dec-08 07:28N 33°39' E 130°24'0 0.0
2017-Dec-08 06:58N 33°39' E 130°24'0 0.0
2017-Dec-08 06:28N 33°39' E 130°24'0 0.0
2017-Dec-08 05:58N 33°39' E 130°24'0 0.0
2017-Dec-08 05:28N 33°39' E 130°24'0 0.0
2017-Dec-08 04:58N 33°39' E 130°24'0 0.0
2017-Dec-08 04:31N 33°39' E 130°24'0 0.0
2017-Dec-08 04:00N 33°39' E 130°24'0 0.0
2017-Dec-08 03:30N 33°39' E 130°24'0 0.0
2017-Dec-08 03:00N 33°39' E 130°24'0 0.8
2017-Dec-08 02:30N 33°39' E 130°24'611.4
2017-Dec-08 02:00N 33°40' E 130°17'611.3
2017-Dec-08 01:30N 33°45' E 130°19'613.0
2017-Dec-08 01:01N 33°50' E 130°24'713.3
2017-Dec-08 00:31N 33°55' E 130°29'611.6
2017-Dec-08 00:00N 33°57' E 130°35'611.1
2017-Dec-07 23:31N 33°58' E 130°42'611.2
2017-Dec-07 23:01N 33°58' E 130°49'510.2
2017-Dec-07 22:31N 33°55' E 130°54'4 7.2
2017-Dec-07 22:01N 33°57' E 130°57'4 7.5
2017-Dec-07 21:30N 33°58' E 131°01'611.8
2017-Dec-07 21:01N 33°55' E 131°07'612.1
2017-Dec-07 20:30N 33°52' E 131°13'612.2
2017-Dec-07 20:00N 33°50' E 131°21'612.4
2017-Dec-07 19:30N 33°49' E 131°28'612.3
2017-Dec-07 19:00N 33°48' E 131°35'612.2
2017-Dec-07 18:30N 33°47' E 131°42'612.2
2017-Dec-07 18:00N 33°46' E 131°50'612.6
2017-Dec-07 17:30N 33°45' E 131°57'613.0
2017-Dec-07 17:00N 33°46' E 132°05'813.5
2017-Dec-07 16:23N 33°50' E 132°14'513.1
2017-Dec-07 15:59N 33°50' E 132°20'1112.9
2017-Dec-07 15:10N 33°53' E 132°32'312.6
2017-Dec-07 14:54N 33°54' E 132°36'512.0
2017-Dec-07 14:28N 33°57' E 132°42'8811.3
2017-Dec-07 06:43N 34°25' E 134°22'312.6
2017-Dec-07 06:30N 34°26' E 134°25'713.2
2017-Dec-07 06:00N 34°29' E 134°32'713.4
2017-Dec-07 05:30N 34°31' E 134°40'714.0
2017-Dec-07 05:00N 34°34' E 134°48'714.8
2017-Dec-07 04:30N 34°37' E 134°56'713.6
2017-Dec-07 04:00N 34°36' E 135°04'713.5
2017-Dec-07 03:31N 34°37' E 135°12'510.3
2017-Dec-07 03:01N 34°41' E 135°17'0 0.2
2017-Dec-07 02:25N 34°41' E 135°17'0 0.8
2017-Dec-07 02:01N 34°41' E 135°17'0 0.0
2017-Dec-07 01:30N 34°41' E 135°17'0 0.6
2017-Dec-07 01:00N 34°41' E 135°17'0 0.1
2017-Dec-07 00:28N 34°41' E 135°17'0 0.0
2017-Dec-06 23:58N 34°41' E 135°17'0 0.0
2017-Dec-06 23:28N 34°41' E 135°17'0 0.7
2017-Dec-06 23:01N 34°41' E 135°16'0 0.1
2017-Dec-06 22:27N 34°41' E 135°17'0 0.1
2017-Dec-06 22:00N 34°41' E 135°16'0 0.1
2017-Dec-06 21:30N 34°41' E 135°17'0 0.0
2017-Dec-06 21:00N 34°41' E 135°17'  

Dump ship's entire track history